createdAt,value
2022-10-29T00:14:48.764Z,8.55
2022-10-29T00:29:50.753Z,8.90
2022-10-29T00:44:52.708Z,7.15
2022-10-29T00:59:55.026Z,7.45
2022-10-29T01:15:34.668Z,7.88
2022-10-29T01:30:56.118Z,6.78
2022-10-29T01:46:27.780Z,8.45
2022-10-29T02:01:38.585Z,9.93
2022-10-29T02:16:40.923Z,10.80
2022-10-29T02:31:42.819Z,8.35
2022-10-29T02:46:44.711Z,8.05
2022-10-29T03:01:46.710Z,7.40
2022-10-29T03:16:48.651Z,8.82
2022-10-29T03:31:50.520Z,4.97
2022-10-29T03:46:52.390Z,4.78
2022-10-29T04:01:54.377Z,3.92
2022-10-29T04:16:57.453Z,3.88
2022-10-29T04:31:59.335Z,5.18
2022-10-29T04:47:01.184Z,5.93
2022-10-29T05:02:03.049Z,3.95
2022-10-29T05:17:04.918Z,5.07
2022-10-29T05:32:06.982Z,5.50
2022-10-29T05:47:08.925Z,5.22
2022-10-29T06:02:10.900Z,4.68
2022-10-29T06:17:12.861Z,6.47
2022-10-29T06:32:14.815Z,4.35
2022-10-29T06:47:16.671Z,5.03
2022-10-29T07:02:19.581Z,5.20
2022-10-29T07:17:21.439Z,6.30
2022-10-29T07:32:24.473Z,4.82
2022-10-29T07:47:26.325Z,4.85
2022-10-29T08:02:28.178Z,5.35
2022-10-29T08:17:30.381Z,5.55
2022-10-29T08:32:32.248Z,4.82
2022-10-29T08:47:57.716Z,4.85
2022-10-29T09:03:01.270Z,4.85
2022-10-29T09:18:27.853Z,4.70
2022-10-29T09:33:30.473Z,4.30
2022-10-29T09:49:27.051Z,4.32
2022-10-29T10:04:37.551Z,3.40
2022-10-29T10:19:46.861Z,4.18
2022-10-29T10:34:49.932Z,4.20
2022-10-29T10:49:52.190Z,3.38
2022-10-29T11:05:06.924Z,3.83
2022-10-29T11:20:42.563Z,2.95
2022-10-29T11:36:23.429Z,4.70
2022-10-29T11:52:03.640Z,3.67
2022-10-29T12:07:11.650Z,4.20
2022-10-29T12:22:28.552Z,4.40
2022-10-29T12:37:44.279Z,5.30
2022-10-29T12:53:15.855Z,4.20
2022-10-29T13:08:27.864Z,4.40
2022-10-29T13:23:35.299Z,4.75
2022-10-29T13:38:58.720Z,5.40
2022-10-29T13:54:19.128Z,5.80
2022-10-29T14:09:28.302Z,4.22
2022-10-29T14:24:38.162Z,4.90
2022-10-29T14:40:01.940Z,3.97
2022-10-29T14:55:08.628Z,4.43
2022-10-29T15:10:23.514Z,3.72
2022-10-29T15:25:32.264Z,5.32
2022-10-29T15:40:34.223Z,4.18
2022-10-29T15:55:38.607Z,5.57
2022-10-29T16:10:40.503Z,9.50
2022-10-29T16:25:42.446Z,11.52
2022-10-29T16:40:44.910Z,11.43
2022-10-29T16:55:46.813Z,10.63
2022-10-29T17:10:48.713Z,14.70
2022-10-29T17:25:55.271Z,21.45
2022-10-29T17:40:57.211Z,13.57
2022-10-29T17:56:00.290Z,17.90
2022-10-29T18:11:07.921Z,17.58
2022-10-29T18:26:28.014Z,16.92
2022-10-29T18:41:30.075Z,14.13
2022-10-29T18:56:32.177Z,11.57
2022-10-29T19:11:34.812Z,15.18
2022-10-29T19:26:37.053Z,14.90
2022-10-29T19:41:38.889Z,13.23
2022-10-29T19:56:40.781Z,18.67
2022-10-29T20:11:42.669Z,15.60
2022-10-29T20:26:44.560Z,16.27
2022-10-29T20:41:48.048Z,19.48
2022-10-29T20:56:50.079Z,15.60
2022-10-29T21:11:51.898Z,16.20
2022-10-29T21:26:53.844Z,14.48
2022-10-29T21:41:56.345Z,16.40
2022-10-29T21:56:58.184Z,15.95
2022-10-29T22:12:00.169Z,17.55
2022-10-29T22:27:02.178Z,17.23
2022-10-29T22:42:04.157Z,17.27
2022-10-29T22:57:06.103Z,17.83
2022-10-29T23:12:07.960Z,17.25
2022-10-29T23:27:09.901Z,16.90
2022-10-29T23:42:11.804Z,19.05
2022-10-29T23:57:13.702Z,22.35
